createdAt,value
2022-12-01T00:01:20.282Z,11.53
2022-12-01T00:03:47.457Z,9.57
2022-12-01T00:06:18.408Z,9.73
2022-12-01T00:09:06.201Z,9.67
2022-12-01T00:11:35.166Z,8.97
2022-12-01T00:14:02.251Z,9.63
2022-12-01T00:16:29.648Z,9.60
2022-12-01T00:18:57.350Z,11.03
2022-12-01T00:21:26.570Z,10.10
2022-12-01T00:23:56.589Z,9.87
2022-12-01T00:26:24.592Z,10.37
2022-12-01T00:28:53.905Z,9.73
2022-12-01T00:31:21.533Z,10.77
2022-12-01T00:33:49.766Z,10.83
2022-12-01T00:36:16.722Z,10.73
2022-12-01T00:38:43.621Z,10.07
2022-12-01T00:41:10.848Z,10.63
2022-12-01T00:43:37.769Z,10.33
2022-12-01T00:46:04.928Z,10.60
2022-12-01T00:48:31.867Z,10.37
2022-12-01T00:50:59.413Z,10.07
2022-12-01T00:53:26.313Z,10.77
2022-12-01T00:55:55.845Z,10.97
2022-12-01T00:58:23.720Z,10.70
2022-12-01T01:00:58.847Z,9.77
2022-12-01T01:03:27.117Z,10.70
2022-12-01T01:05:54.339Z,11.00
2022-12-01T01:08:21.375Z,11.47
2022-12-01T01:10:49.430Z,9.70
2022-12-01T01:13:16.916Z,10.13
2022-12-01T01:15:43.938Z,11.07
2022-12-01T01:18:12.628Z,11.20
2022-12-01T01:20:39.761Z,10.80
2022-12-01T01:23:06.765Z,11.23
2022-12-01T01:25:33.891Z,11.03
2022-12-01T01:28:00.827Z,10.97
2022-12-01T01:30:28.020Z,12.30
2022-12-01T01:32:55.310Z,11.27
2022-12-01T01:35:22.270Z,11.83
2022-12-01T01:37:50.929Z,11.60
2022-12-01T01:40:18.384Z,11.80
2022-12-01T01:42:45.333Z,11.57
2022-12-01T01:45:27.647Z,10.73
2022-12-01T01:47:57.578Z,11.27
2022-12-01T01:50:28.408Z,11.03
2022-12-01T01:53:05.090Z,10.60
2022-12-01T01:55:34.624Z,11.37
2022-12-01T01:58:05.051Z,11.10
2022-12-01T02:00:32.009Z,12.50
2022-12-01T02:03:00.425Z,10.70
2022-12-01T02:05:32.608Z,10.50
2022-12-01T02:08:02.134Z,11.47
2022-12-01T02:11:18.027Z,10.90
2022-12-01T02:13:47.743Z,10.80
2022-12-01T02:16:35.235Z,10.57
2022-12-01T02:19:34.280Z,10.73
2022-12-01T02:22:30.363Z,10.47
2022-12-01T02:25:21.300Z,10.10
2022-12-01T02:28:29.418Z,10.83
2022-12-01T02:31:03.250Z,11.27
2022-12-01T02:33:41.794Z,10.97
2022-12-01T02:36:46.450Z,11.13
2022-12-01T02:39:35.822Z,11.47
2022-12-01T02:42:39.802Z,11.63
2022-12-01T02:45:12.072Z,10.80
2022-12-01T02:47:42.093Z,10.80
2022-12-01T02:50:11.152Z,11.23
2022-12-01T02:52:40.265Z,11.07
2022-12-01T02:55:07.484Z,11.60
2022-12-01T02:57:34.373Z,11.10
2022-12-01T03:00:02.160Z,12.53
2022-12-01T03:03:13.384Z,13.30
2022-12-01T03:05:58.535Z,11.90
2022-12-01T03:09:05.986Z,10.73
2022-12-01T03:11:46.428Z,10.57
2022-12-01T03:14:51.433Z,10.70
2022-12-01T03:17:27.300Z,11.10
2022-12-01T03:20:03.842Z,10.63
2022-12-01T03:22:41.465Z,11.23
2022-12-01T03:25:11.348Z,10.10
2022-12-01T03:28:00.566Z,11.07
2022-12-01T03:30:35.866Z,9.87
2022-12-01T03:33:09.927Z,10.77
2022-12-01T03:36:11.863Z,10.40
2022-12-01T03:38:42.208Z,11.23
2022-12-01T03:41:21.232Z,11.00
2022-12-01T03:43:56.993Z,10.47
2022-12-01T03:46:50.810Z,12.40
2022-12-01T03:49:19.250Z,10.57
2022-12-01T03:52:14.124Z,11.83
2022-12-01T03:54:59.403Z,11.60
2022-12-01T03:57:32.492Z,10.13
2022-12-01T03:59:59.692Z,11.00
2022-12-01T04:02:28.492Z,11.07
2022-12-01T04:04:55.458Z,10.67
2022-12-01T04:07:23.520Z,11.37
2022-12-01T04:09:50.876Z,11.27
2022-12-01T04:12:29.664Z,10.93
2022-12-01T04:14:58.005Z,10.77
2022-12-01T04:17:26.251Z,11.70
2022-12-01T04:19:53.814Z,10.47
2022-12-01T04:22:21.158Z,11.30
2022-12-01T04:24:48.115Z,11.73
2022-12-01T04:27:15.280Z,11.07
2022-12-01T04:29:42.211Z,10.90
2022-12-01T04:32:09.106Z,11.30
2022-12-01T04:34:36.049Z,11.53
2022-12-01T04:37:06.177Z,11.47
2022-12-01T04:39:34.343Z,11.77
2022-12-01T04:42:01.383Z,11.77
2022-12-01T04:44:34.301Z,11.23
2022-12-01T04:47:02.853Z,11.83
2022-12-01T04:49:29.782Z,11.77
2022-12-01T04:51:56.775Z,12.13
2022-12-01T04:54:23.884Z,11.80
2022-12-01T04:56:50.844Z,11.40
2022-12-01T04:59:18.068Z,12.20
2022-12-01T05:01:46.721Z,11.57
2022-12-01T05:04:14.395Z,10.60
2022-12-01T05:06:41.353Z,11.10
2022-12-01T05:09:14.293Z,10.83
2022-12-01T05:11:44.047Z,10.77
2022-12-01T05:14:10.993Z,11.90
2022-12-01T05:16:38.140Z,11.77
2022-12-01T05:19:25.099Z,10.47
2022-12-01T05:21:52.556Z,11.70
2022-12-01T05:24:21.353Z,11.80
2022-12-01T05:26:48.417Z,13.43
2022-12-01T05:29:15.459Z,12.37
2022-12-01T05:31:42.571Z,12.30
2022-12-01T05:34:09.931Z,12.93
2022-12-01T05:36:36.876Z,12.43
2022-12-01T05:39:05.074Z,13.47
2022-12-01T05:41:32.371Z,13.57
2022-12-01T05:43:59.424Z,14.07
2022-12-01T05:46:26.384Z,12.70
2022-12-01T05:48:53.302Z,14.27
2022-12-01T05:51:20.275Z,13.77
2022-12-01T05:53:47.189Z,13.60
2022-12-01T05:56:14.122Z,14.33
2022-12-01T05:58:41.044Z,14.03
2022-12-01T06:01:08.625Z,15.40
2022-12-01T06:03:35.549Z,14.43
2022-12-01T06:06:02.637Z,15.03
2022-12-01T06:08:29.613Z,13.60
2022-12-01T06:10:56.512Z,13.40
2022-12-01T06:13:23.430Z,13.80
2022-12-01T06:15:59.484Z,11.63
2022-12-01T06:18:36.525Z,12.83
2022-12-01T06:21:05.810Z,12.40
2022-12-01T06:23:33.752Z,13.30
2022-12-01T06:26:00.672Z,12.73
2022-12-01T06:28:27.573Z,11.83
2022-12-01T06:30:59.311Z,14.27
2022-12-01T06:33:29.705Z,15.40
2022-12-01T06:36:01.721Z,22.20
2022-12-01T06:38:36.734Z,22.03
2022-12-01T06:41:05.408Z,14.77
2022-12-01T06:43:32.520Z,12.60
2022-12-01T06:46:01.942Z,12.07
2022-12-01T06:48:30.634Z,12.17
2022-12-01T06:50:59.269Z,13.80
2022-12-01T06:53:27.503Z,13.60
2022-12-01T06:56:01.398Z,12.40
2022-12-01T06:58:28.785Z,11.47
2022-12-01T07:00:58.760Z,12.77
2022-12-01T07:03:25.739Z,12.17
2022-12-01T07:06:01.270Z,12.43
2022-12-01T07:08:30.238Z,11.90
2022-12-01T07:11:07.564Z,11.63
2022-12-01T07:13:35.745Z,12.43
2022-12-01T07:16:03.550Z,12.43
2022-12-01T07:18:31.150Z,11.73
2022-12-01T07:21:07.171Z,11.03
2022-12-01T07:23:34.831Z,11.63
2022-12-01T07:26:03.604Z,12.30
2022-12-01T07:28:30.773Z,12.17
2022-12-01T07:31:27.119Z,12.17
2022-12-01T07:33:54.120Z,12.53
2022-12-01T07:36:21.117Z,14.33
2022-12-01T07:38:48.000Z,12.80
2022-12-01T07:41:21.233Z,13.77
2022-12-01T07:43:50.962Z,13.00
2022-12-01T07:46:23.807Z,12.73
2022-12-01T07:48:52.194Z,12.90
2022-12-01T07:51:20.032Z,13.93
2022-12-01T07:53:49.521Z,22.03
2022-12-01T07:56:18.244Z,16.27
2022-12-01T07:58:45.200Z,12.97
2022-12-01T08:01:16.115Z,12.93
2022-12-01T08:03:43.774Z,13.27
2022-12-01T08:06:11.690Z,13.47
2022-12-01T08:08:41.639Z,12.90
2022-12-01T08:11:14.069Z,13.57
2022-12-01T08:13:43.544Z,14.23
2022-12-01T08:16:17.468Z,12.30
2022-12-01T08:18:46.414Z,13.13
2022-12-01T08:21:20.196Z,13.03
2022-12-01T08:23:54.995Z,13.73
2022-12-01T08:26:28.683Z,14.47
2022-12-01T08:28:57.961Z,14.67
2022-12-01T08:31:37.755Z,14.30
2022-12-01T08:34:08.255Z,14.00
2022-12-01T08:36:36.127Z,15.13
2022-12-01T08:39:10.008Z,12.97
2022-12-01T08:41:39.242Z,16.30
2022-12-01T08:44:07.138Z,17.27
2022-12-01T08:46:35.732Z,14.10
2022-12-01T08:49:12.600Z,15.80
2022-12-01T08:51:44.987Z,14.33
2022-12-01T08:54:16.370Z,14.60
2022-12-01T08:56:46.281Z,15.10
2022-12-01T08:59:17.167Z,13.37
2022-12-01T09:01:55.132Z,16.13
2022-12-01T09:04:25.170Z,20.23
2022-12-01T09:06:58.154Z,21.07
2022-12-01T09:09:32.648Z,17.40
2022-12-01T09:11:59.527Z,17.50
2022-12-01T09:14:26.425Z,18.03
2022-12-01T09:16:53.556Z,22.20
2022-12-01T09:19:24.719Z,20.77
2022-12-01T09:21:52.439Z,15.80
2022-12-01T09:24:23.021Z,18.90
2022-12-01T09:26:49.974Z,18.80
2022-12-01T09:29:17.562Z,20.47
2022-12-01T09:31:44.742Z,19.07
2022-12-01T09:34:18.284Z,16.20
2022-12-01T09:36:46.114Z,16.77
2022-12-01T09:39:19.018Z,17.33
2022-12-01T09:41:54.738Z,17.43
2022-12-01T09:44:39.564Z,17.30
2022-12-01T09:47:33.150Z,16.07
2022-12-01T09:50:21.911Z,21.57
2022-12-01T09:53:06.983Z,17.57
2022-12-01T09:55:35.347Z,16.40
2022-12-01T09:58:04.789Z,16.30
2022-12-01T10:00:39.993Z,15.57
2022-12-01T10:03:30.414Z,14.10
2022-12-01T10:06:26.580Z,12.53
2022-12-01T10:09:21.311Z,13.97
2022-12-01T10:11:51.233Z,14.07
2022-12-01T10:14:20.765Z,14.43
2022-12-01T10:17:06.821Z,12.70
2022-12-01T10:19:52.178Z,13.03
2022-12-01T10:22:51.644Z,14.67
2022-12-01T10:25:42.165Z,14.13
2022-12-01T10:28:40.575Z,14.67
2022-12-01T10:31:25.167Z,14.43
2022-12-01T10:34:17.151Z,14.70
2022-12-01T10:36:44.250Z,14.13
2022-12-01T10:39:20.098Z,13.27
2022-12-01T10:41:49.103Z,14.33
2022-12-01T10:44:18.815Z,14.17
2022-12-01T10:46:54.513Z,15.97
2022-12-01T10:49:40.605Z,23.93
2022-12-01T10:52:39.552Z,13.70
2022-12-01T10:55:33.670Z,14.60
2022-12-01T10:58:12.273Z,13.57
2022-12-01T11:03:58.052Z,16.63
2022-12-01T11:06:30.410Z,14.17
2022-12-01T11:09:01.906Z,14.10
2022-12-01T11:11:40.591Z,16.23
2022-12-01T11:14:23.477Z,16.23
2022-12-01T11:16:54.152Z,16.00
2022-12-01T11:19:33.928Z,16.77
2022-12-01T11:22:29.118Z,16.37
2022-12-01T11:25:00.541Z,16.17
2022-12-01T11:27:46.190Z,16.07
2022-12-01T11:30:29.581Z,17.30
2022-12-01T11:33:07.922Z,17.37
2022-12-01T11:35:37.615Z,16.27
2022-12-01T11:38:28.906Z,17.70
2022-12-01T11:40:56.812Z,18.33
2022-12-01T11:43:34.748Z,19.97
2022-12-01T11:46:07.875Z,18.10
2022-12-01T11:48:36.606Z,17.93
2022-12-01T11:51:37.415Z,16.87
2022-12-01T11:54:24.501Z,16.43
2022-12-01T11:57:31.789Z,17.70
2022-12-01T11:59:47.692Z,16.80
2022-12-01T12:02:42.812Z,16.67
2022-12-01T12:06:05.948Z,16.43
2022-12-01T12:09:24.194Z,21.20
2022-12-01T12:12:27.613Z,19.60
2022-12-01T12:15:54.981Z,21.70
2022-12-01T12:19:28.948Z,19.90
2022-12-01T12:22:38.309Z,19.10
2022-12-01T12:25:47.156Z,20.53
2022-12-01T12:28:56.733Z,21.37
2022-12-01T12:31:29.025Z,19.57
2022-12-01T12:34:41.981Z,21.87
2022-12-01T12:37:31.043Z,20.17
2022-12-01T12:40:34.487Z,19.50
2022-12-01T12:43:45.863Z,21.00
2022-12-01T12:47:04.670Z,20.10
2022-12-01T12:49:46.006Z,21.73
2022-12-01T12:52:16.836Z,21.50
2022-12-01T12:54:57.258Z,20.23
2022-12-01T12:57:36.408Z,22.10
2022-12-01T13:00:14.332Z,20.93
2022-12-01T13:03:16.261Z,18.13
2022-12-01T13:06:00.714Z,18.83
2022-12-01T13:08:42.025Z,19.23
2022-12-01T13:14:45.126Z,17.93
2022-12-01T13:17:33.278Z,17.20
2022-12-01T13:20:00.270Z,16.80
2022-12-01T13:22:34.590Z,14.23
2022-12-01T13:25:04.194Z,12.17
2022-12-01T13:27:40.613Z,11.00
2022-12-01T13:30:22.405Z,12.70
2022-12-01T13:32:49.970Z,10.60
2022-12-01T13:35:29.895Z,10.93
2022-12-01T13:38:25.259Z,10.73
2022-12-01T13:41:24.415Z,10.57
2022-12-01T13:43:59.127Z,11.17
2022-12-01T13:46:52.855Z,10.90
2022-12-01T13:49:45.028Z,10.83
2022-12-01T13:52:28.080Z,11.47
2022-12-01T13:55:08.766Z,10.63
2022-12-01T13:58:14.229Z,9.80
2022-12-01T14:00:43.113Z,11.03
2022-12-01T14:03:13.099Z,8.87
2022-12-01T14:05:40.131Z,11.97
2022-12-01T14:08:23.676Z,10.23
2022-12-01T14:11:01.794Z,8.33
2022-12-01T14:13:31.701Z,8.37
2022-12-01T14:16:01.892Z,8.90
2022-12-01T14:18:40.572Z,8.60
2022-12-01T14:21:11.436Z,7.80
2022-12-01T14:24:05.028Z,6.73
2022-12-01T14:26:34.647Z,7.43
2022-12-01T14:29:01.457Z,6.90
2022-12-01T14:31:34.420Z,6.73
2022-12-01T14:34:26.731Z,7.63
2022-12-01T14:37:12.513Z,7.07
2022-12-01T14:39:44.530Z,7.67
2022-12-01T14:42:11.309Z,8.13
2022-12-01T14:44:49.085Z,9.30
2022-12-01T14:47:38.621Z,7.70
2022-12-01T14:50:20.916Z,13.27
2022-12-01T14:52:55.785Z,12.00
2022-12-01T14:55:35.987Z,10.47
2022-12-01T14:58:13.789Z,13.50
2022-12-01T15:01:00.754Z,12.97
2022-12-01T15:03:35.208Z,11.70
2022-12-01T15:06:02.238Z,11.03
2022-12-01T15:09:10.612Z,10.93
2022-12-01T15:11:26.376Z,10.00
2022-12-01T15:13:57.611Z,10.63
2022-12-01T15:16:29.273Z,9.93
2022-12-01T15:18:56.529Z,10.13
2022-12-01T15:21:30.523Z,9.40
2022-12-01T15:24:26.353Z,10.50
2022-12-01T15:27:02.115Z,11.10
2022-12-01T15:29:44.778Z,10.83
2022-12-01T15:32:17.025Z,12.43
2022-12-01T15:34:47.532Z,12.43
2022-12-01T15:37:18.075Z,15.80
2022-12-01T15:40:00.849Z,11.43
2022-12-01T15:42:39.570Z,12.43
2022-12-01T15:45:23.561Z,11.37
2022-12-01T15:47:56.767Z,14.37
2022-12-01T15:50:39.731Z,14.83
2022-12-01T15:53:34.829Z,15.17
2022-12-01T15:56:07.540Z,12.67
2022-12-01T15:58:41.618Z,14.00
2022-12-01T16:01:20.460Z,15.17
2022-12-01T16:04:04.321Z,12.90
2022-12-01T16:06:36.428Z,15.10
2022-12-01T16:09:19.144Z,14.27
2022-12-01T16:12:14.466Z,15.27
2022-12-01T16:15:00.226Z,14.00
2022-12-01T16:17:47.431Z,12.00
2022-12-01T16:20:32.192Z,13.77
2022-12-01T16:23:02.374Z,14.03
2022-12-01T16:25:40.039Z,14.63
2022-12-01T16:28:28.991Z,15.57
2022-12-01T16:30:56.120Z,14.50
2022-12-01T16:33:26.230Z,15.03
2022-12-01T16:35:53.705Z,15.13
2022-12-01T16:38:26.761Z,15.70
2022-12-01T16:40:59.272Z,15.63
2022-12-01T16:43:28.631Z,15.63
2022-12-01T16:46:03.253Z,16.83
2022-12-01T16:48:31.254Z,20.33
2022-12-01T16:51:03.125Z,16.77
2022-12-01T16:53:30.068Z,16.83
2022-12-01T16:56:00.165Z,18.43
2022-12-01T16:58:27.839Z,17.43
2022-12-01T17:00:55.142Z,19.27
2022-12-01T17:03:27.534Z,17.80
2022-12-01T17:05:55.183Z,19.30
2022-12-01T17:08:22.609Z,25.37
2022-12-01T17:10:50.815Z,18.47
2022-12-01T17:13:19.395Z,17.67
2022-12-01T17:15:49.376Z,15.77
2022-12-01T17:18:19.053Z,15.90
2022-12-01T17:20:56.874Z,16.60
2022-12-01T17:23:23.840Z,13.67
2022-12-01T17:25:50.822Z,14.77
2022-12-01T17:28:17.941Z,14.43
2022-12-01T17:30:45.055Z,16.53
2022-12-01T17:33:19.484Z,17.70
2022-12-01T17:35:46.408Z,19.63
2022-12-01T17:38:13.294Z,16.37
2022-12-01T17:40:40.212Z,15.07
2022-12-01T17:43:08.539Z,15.27
2022-12-01T17:45:41.938Z,13.23
2022-12-01T17:48:09.126Z,13.23
2022-12-01T17:50:36.013Z,13.77
2022-12-01T17:53:02.925Z,13.50
2022-12-01T17:55:29.843Z,17.40
2022-12-01T17:57:58.780Z,18.03
2022-12-01T18:00:25.775Z,17.10
2022-12-01T18:02:53.211Z,19.87
2022-12-01T18:05:20.321Z,22.97
2022-12-01T18:07:47.596Z,21.20
2022-12-01T18:10:14.509Z,17.43
2022-12-01T18:12:41.397Z,17.23
2022-12-01T18:15:09.097Z,17.27
2022-12-01T18:17:36.177Z,20.30
2022-12-01T18:20:03.259Z,19.87
2022-12-01T18:22:30.131Z,16.77
2022-12-01T18:24:58.731Z,16.90
2022-12-01T18:27:25.642Z,21.17
2022-12-01T18:29:52.544Z,19.00
2022-12-01T18:32:19.484Z,18.37
2022-12-01T18:34:46.424Z,15.47
2022-12-01T18:37:13.334Z,17.50
2022-12-01T18:39:40.343Z,17.37
2022-12-01T18:42:07.301Z,18.43
2022-12-01T18:44:34.236Z,17.53
2022-12-01T18:47:03.745Z,17.03
2022-12-01T18:49:30.833Z,17.93
2022-12-01T18:51:59.593Z,14.53
2022-12-01T18:54:27.225Z,15.17
2022-12-01T18:56:55.110Z,14.70
2022-12-01T18:59:22.079Z,15.83
2022-12-01T19:01:49.596Z,15.07
2022-12-01T19:04:17.040Z,15.70
2022-12-01T19:06:45.622Z,18.17
2022-12-01T19:09:14.410Z,16.27
2022-12-01T19:11:42.277Z,21.83
2022-12-01T19:14:16.736Z,19.57
2022-12-01T19:16:45.521Z,16.60
2022-12-01T19:19:12.657Z,19.13
2022-12-01T19:21:39.618Z,21.13
2022-12-01T19:24:06.978Z,20.93
2022-12-01T19:26:33.949Z,19.97
2022-12-01T19:29:00.895Z,19.87
2022-12-01T19:31:27.866Z,21.33
2022-12-01T19:33:55.347Z,18.73
2022-12-01T19:36:27.416Z,20.67
2022-12-01T19:38:57.816Z,19.63
2022-12-01T19:41:25.655Z,20.97
2022-12-01T19:43:53.623Z,18.33
2022-12-01T19:46:23.506Z,18.33
2022-12-01T19:49:02.311Z,18.00
2022-12-01T19:51:36.910Z,18.20
2022-12-01T19:54:07.408Z,15.93
2022-12-01T19:56:34.459Z,14.87
2022-12-01T19:59:01.374Z,15.27
2022-12-01T20:01:28.912Z,13.20
2022-12-01T20:03:55.948Z,13.30
2022-12-01T20:06:29.713Z,13.40
2022-12-01T20:08:59.705Z,12.03
2022-12-01T20:11:29.794Z,14.30
2022-12-01T20:13:56.806Z,14.87
2022-12-01T20:16:26.386Z,13.70
2022-12-01T20:18:54.838Z,13.03
2022-12-01T20:21:28.508Z,13.37
2022-12-01T20:24:02.064Z,13.70
2022-12-01T20:26:39.799Z,14.00
2022-12-01T20:29:14.822Z,10.90
2022-12-01T20:31:43.078Z,12.00
2022-12-01T20:34:25.568Z,13.20
2022-12-01T20:36:54.069Z,13.80
2022-12-01T20:39:21.450Z,15.23
2022-12-01T20:41:49.090Z,14.80
2022-12-01T20:44:17.368Z,15.93
2022-12-01T20:46:45.833Z,14.60
2022-12-01T20:49:13.819Z,13.53
2022-12-01T20:51:40.765Z,15.07
2022-12-01T20:54:28.689Z,12.87
2022-12-01T20:56:56.872Z,15.00
2022-12-01T20:59:24.060Z,13.13
2022-12-01T21:01:50.939Z,13.13
2022-12-01T21:04:17.831Z,11.87
2022-12-01T21:06:44.768Z,11.03
2022-12-01T21:09:13.134Z,13.40
2022-12-01T21:12:07.101Z,14.17
2022-12-01T21:14:49.275Z,14.17
2022-12-01T21:17:34.401Z,15.53
2022-12-01T21:20:21.920Z,13.90
2022-12-01T21:22:53.736Z,12.00
2022-12-01T21:25:24.549Z,12.43
2022-12-01T21:27:51.897Z,14.03
2022-12-01T21:30:24.936Z,14.83
2022-12-01T21:32:52.952Z,14.37
2022-12-01T21:35:22.593Z,13.13
2022-12-01T21:37:53.300Z,11.00
2022-12-01T21:40:25.677Z,12.70
2022-12-01T21:42:52.583Z,12.73
2022-12-01T21:45:27.136Z,13.63
2022-12-01T21:48:01.555Z,12.50
2022-12-01T21:50:28.541Z,13.47
2022-12-01T21:52:55.445Z,14.10
2022-12-01T21:55:26.050Z,11.77
2022-12-01T21:57:54.422Z,12.03
2022-12-01T22:00:35.762Z,12.37
2022-12-01T22:03:08.668Z,12.63
2022-12-01T22:05:40.773Z,12.10
2022-12-01T22:08:13.668Z,12.97
2022-12-01T22:11:08.604Z,12.80
2022-12-01T22:13:54.399Z,12.87
2022-12-01T22:16:38.059Z,13.10
2022-12-01T22:19:17.118Z,13.00
2022-12-01T22:21:57.661Z,13.53
2022-12-01T22:24:46.998Z,12.70
2022-12-01T22:27:33.085Z,11.80
2022-12-01T22:30:18.668Z,11.90
2022-12-01T22:33:05.984Z,13.40
2022-12-01T22:35:44.013Z,12.87
2022-12-01T22:38:36.682Z,11.27
2022-12-01T22:41:17.190Z,12.70
2022-12-01T22:43:50.847Z,12.33
2022-12-01T22:46:36.185Z,12.13
2022-12-01T22:49:19.392Z,11.73
2022-12-01T22:51:52.317Z,12.77
2022-12-01T22:54:30.479Z,12.73
2022-12-01T22:57:05.077Z,12.10
2022-12-01T22:59:35.918Z,12.40
2022-12-01T23:02:19.318Z,12.20
2022-12-01T23:04:48.315Z,13.30
2022-12-01T23:07:42.208Z,12.67
2022-12-01T23:10:30.438Z,12.03
2022-12-01T23:13:12.364Z,11.67
2022-12-01T23:15:44.488Z,12.23
2022-12-01T23:18:27.054Z,12.47
2022-12-01T23:20:59.350Z,11.57
2022-12-01T23:23:34.123Z,12.17
2022-12-01T23:26:04.260Z,12.80
2022-12-01T23:28:31.288Z,13.53
2022-12-01T23:30:59.799Z,13.07
2022-12-01T23:33:34.614Z,13.57
2022-12-01T23:36:14.625Z,12.80
2022-12-01T23:38:44.492Z,14.27
2022-12-01T23:41:17.041Z,14.80
2022-12-01T23:43:45.976Z,13.53
2022-12-01T23:46:23.736Z,12.63
2022-12-01T23:49:03.010Z,11.20
2022-12-01T23:51:44.361Z,14.03
2022-12-01T23:54:21.088Z,11.73
2022-12-01T23:56:56.163Z,19.03
2022-12-01T23:59:23.794Z,18.20
